createdAt,value
2018-03-01T00:01:13.038Z,39.35
2018-03-01T00:03:40.748Z,21.27
2018-03-01T00:06:08.497Z,49.78
2018-03-01T00:08:36.212Z,35.47
2018-03-01T00:11:03.890Z,34.70
2018-03-01T00:13:31.748Z,27.48
2018-03-01T00:15:59.431Z,27.27
2018-03-01T00:18:27.118Z,27.17
2018-03-01T00:20:54.870Z,39.33
2018-03-01T00:23:22.572Z,37.53
2018-03-01T00:25:50.300Z,32.10
2018-03-01T00:28:18.132Z,48.42
2018-03-01T00:30:46.014Z,36.17
2018-03-01T00:33:13.791Z,35.90
2018-03-01T00:35:41.465Z,37.60
2018-03-01T00:38:09.136Z,58.60
2018-03-01T00:40:36.814Z,33.55
2018-03-01T00:43:04.536Z,38.28
2018-03-01T00:45:32.369Z,45.75
2018-03-01T00:48:00.042Z,29.25
2018-03-01T00:50:28.027Z,33.65
2018-03-01T00:52:55.685Z,28.92
2018-03-01T00:55:23.481Z,31.70
2018-03-01T00:57:51.128Z,41.85
2018-03-01T01:00:18.814Z,47.03
2018-03-01T01:02:46.409Z,33.42
2018-03-01T01:05:14.236Z,28.05
2018-03-01T01:07:42.025Z,22.10
2018-03-01T01:10:09.797Z,32.55
2018-03-01T01:12:37.560Z,34.13
2018-03-01T01:15:05.157Z,38.33
2018-03-01T01:17:32.757Z,19.37
2018-03-01T01:20:00.644Z,42.33
2018-03-01T01:22:28.292Z,40.90
2018-03-01T01:24:55.877Z,32.45
2018-03-01T01:27:23.472Z,26.27
2018-03-01T01:29:51.195Z,41.85
2018-03-01T01:32:19.022Z,40.33
2018-03-01T01:34:46.797Z,21.25
2018-03-01T01:37:14.524Z,38.22
2018-03-01T01:39:42.353Z,44.63
2018-03-01T01:42:10.018Z,41.45
2018-03-01T01:44:37.700Z,42.03
2018-03-01T01:47:05.347Z,39.67
2018-03-01T01:49:33.037Z,26.33
2018-03-01T01:52:00.672Z,43.63
2018-03-01T01:54:28.284Z,23.87
2018-03-01T01:56:56.077Z,35.55
2018-03-01T01:59:23.725Z,28.65
2018-03-01T02:01:51.387Z,38.42
2018-03-01T02:04:18.961Z,25.25
2018-03-01T02:06:46.777Z,30.48
2018-03-01T02:09:14.508Z,38.55
2018-03-01T02:11:42.234Z,36.25
2018-03-01T02:14:09.825Z,32.13
2018-03-01T02:16:37.534Z,35.58
2018-03-01T02:19:05.358Z,24.83
2018-03-01T02:21:32.978Z,43.60
2018-03-01T02:24:00.709Z,49.67
2018-03-01T02:26:28.491Z,31.48
2018-03-01T02:28:56.163Z,58.90
2018-03-01T02:31:23.840Z,20.45
2018-03-01T02:33:51.620Z,21.48
2018-03-01T02:36:31.272Z,31.85
2018-03-01T02:38:59.000Z,42.10
2018-03-01T02:41:26.730Z,27.95
2018-03-01T02:43:54.394Z,27.95
2018-03-01T02:46:21.984Z,34.83
2018-03-01T02:48:49.714Z,27.62
2018-03-01T02:51:17.537Z,27.23
2018-03-01T02:53:45.199Z,32.28
2018-03-01T02:56:12.878Z,44.85
2018-03-01T02:58:40.865Z,41.85
2018-03-01T03:01:08.540Z,46.50
2018-03-01T03:03:36.140Z,29.08
2018-03-01T03:06:03.800Z,31.73
2018-03-01T03:08:31.460Z,44.65
2018-03-01T03:10:59.140Z,37.22
2018-03-01T03:13:27.020Z,41.40
2018-03-01T03:15:54.693Z,54.50
2018-03-01T03:18:22.288Z,39.83
2018-03-01T03:20:50.126Z,29.15
2018-03-01T03:23:17.718Z,43.22
2018-03-01T03:25:45.388Z,36.47
2018-03-01T03:28:13.068Z,22.83
2018-03-01T03:30:40.732Z,20.48
2018-03-01T03:33:08.359Z,48.67
2018-03-01T03:35:36.199Z,50.05
2018-03-01T03:38:03.789Z,45.15
2018-03-01T03:40:31.548Z,43.65
2018-03-01T03:42:59.321Z,44.65
2018-03-01T03:45:26.990Z,37.17
2018-03-01T03:47:54.728Z,28.87
2018-03-01T03:50:22.555Z,48.13
2018-03-01T03:52:50.336Z,43.60
2018-03-01T03:55:18.002Z,36.17
2018-03-01T03:57:45.641Z,32.20
2018-03-01T04:00:13.357Z,48.17
2018-03-01T04:02:41.033Z,52.92
2018-03-01T04:05:08.681Z,45.80
2018-03-01T04:07:36.375Z,38.60
2018-03-01T04:10:04.052Z,37.33
2018-03-01T04:12:31.688Z,27.77
2018-03-01T04:14:59.398Z,33.22
2018-03-01T04:17:27.192Z,48.13
2018-03-01T04:19:54.853Z,37.55
2018-03-01T04:22:22.648Z,19.12
2018-03-01T04:24:50.415Z,26.98
2018-03-01T04:27:18.023Z,32.72
2018-03-01T04:29:45.980Z,43.95
2018-03-01T04:32:13.650Z,44.90
2018-03-01T04:34:41.413Z,26.23
2018-03-01T04:37:09.102Z,43.25
2018-03-01T04:39:36.700Z,31.95
2018-03-01T04:42:04.444Z,29.50
2018-03-01T04:44:32.122Z,34.00
2018-03-01T04:46:59.870Z,37.40
2018-03-01T04:49:27.527Z,39.58
2018-03-01T04:51:55.228Z,43.55
2018-03-01T04:54:22.841Z,35.95
2018-03-01T04:56:50.601Z,30.10
2018-03-01T04:59:18.203Z,36.45
2018-03-01T05:01:45.947Z,40.22
2018-03-01T05:04:13.843Z,46.20
2018-03-01T05:06:41.615Z,36.75
2018-03-01T05:09:09.397Z,42.33
2018-03-01T05:11:37.233Z,41.85
2018-03-01T05:14:04.852Z,31.05
2018-03-01T05:16:32.626Z,32.40
2018-03-01T05:19:00.282Z,25.88
2018-03-01T05:21:27.882Z,34.58
2018-03-01T05:23:55.552Z,44.67
2018-03-01T05:26:23.302Z,34.55
2018-03-01T05:28:51.006Z,40.40
2018-03-01T05:31:18.617Z,29.52
2018-03-01T05:33:46.465Z,28.92
2018-03-01T05:36:14.333Z,23.38
2018-03-01T05:38:41.985Z,33.72
2018-03-01T05:41:09.669Z,35.30
2018-03-01T05:43:37.464Z,34.83
2018-03-01T05:46:05.346Z,35.58
2018-03-01T05:48:33.008Z,26.33
2018-03-01T05:51:00.797Z,21.98
2018-03-01T05:53:28.581Z,20.40
2018-03-01T05:55:56.299Z,40.90
2018-03-01T05:58:23.889Z,41.47
2018-03-01T06:00:51.600Z,18.50
2018-03-01T06:03:19.274Z,21.95
2018-03-01T06:05:46.952Z,30.30
2018-03-01T06:08:14.826Z,36.10
2018-03-01T06:10:42.494Z,36.03
2018-03-01T06:13:10.180Z,16.12
2018-03-01T06:15:38.065Z,40.40
2018-03-01T06:18:05.653Z,39.08
2018-03-01T06:20:33.386Z,29.77
2018-03-01T06:23:01.193Z,38.65
2018-03-01T06:25:28.915Z,39.28
2018-03-01T06:27:56.892Z,46.75
2018-03-01T06:30:24.503Z,36.22
2018-03-01T06:32:52.156Z,31.60
2018-03-01T06:35:19.873Z,28.05
2018-03-01T06:37:47.548Z,25.58
2018-03-01T06:40:15.532Z,24.23
2018-03-01T06:42:43.208Z,26.95
2018-03-01T06:45:10.852Z,37.45
2018-03-01T06:47:38.752Z,33.50
2018-03-01T06:50:06.436Z,32.83
2018-03-01T06:52:34.215Z,24.58
2018-03-01T06:55:02.096Z,27.70
2018-03-01T06:57:29.773Z,14.35
2018-03-01T06:59:57.651Z,29.70
2018-03-01T07:02:25.328Z,33.85
2018-03-01T07:04:52.992Z,20.88
2018-03-01T07:07:20.793Z,30.45
2018-03-01T07:09:48.393Z,24.10
2018-03-01T07:12:16.121Z,30.67
2018-03-01T07:14:43.775Z,47.15
2018-03-01T07:17:11.478Z,36.47
2018-03-01T07:19:39.150Z,29.80
2018-03-01T07:22:06.825Z,35.80
2018-03-01T07:24:34.710Z,29.37
2018-03-01T07:27:02.450Z,22.20
2018-03-01T07:29:30.164Z,36.00
2018-03-01T07:31:57.833Z,31.00
2018-03-01T07:34:25.539Z,25.40
2018-03-01T07:36:53.141Z,32.72
2018-03-01T07:39:20.863Z,28.30
2018-03-01T07:41:48.595Z,26.50
2018-03-01T07:44:16.239Z,21.12
2018-03-01T07:46:43.861Z,32.80
2018-03-01T07:49:11.669Z,60.83
2018-03-01T07:51:39.339Z,51.03
2018-03-01T07:54:07.031Z,32.00
2018-03-01T07:56:34.649Z,25.05
2018-03-01T07:59:02.320Z,26.92
2018-03-01T08:01:30.037Z,26.50
2018-03-01T08:03:57.721Z,39.83
2018-03-01T08:06:25.389Z,20.37
2018-03-01T08:08:53.069Z,33.10
2018-03-01T08:11:20.715Z,35.53
2018-03-01T08:13:48.523Z,31.58
2018-03-01T08:16:16.244Z,25.40
2018-03-01T08:18:43.961Z,38.17
2018-03-01T08:21:11.760Z,26.53
2018-03-01T08:23:39.430Z,32.30
2018-03-01T08:26:07.063Z,24.10
2018-03-01T08:28:34.883Z,28.13
2018-03-01T08:31:02.551Z,22.53
2018-03-01T08:33:30.143Z,18.93
2018-03-01T08:35:57.722Z,21.83
2018-03-01T08:38:25.332Z,20.40
2018-03-01T08:40:52.919Z,20.53
2018-03-01T08:43:20.628Z,24.53
2018-03-01T08:45:48.214Z,17.63
2018-03-01T08:48:15.976Z,29.60
2018-03-01T08:50:43.650Z,26.30
2018-03-01T08:53:11.243Z,16.93
2018-03-01T08:55:39.007Z,27.20
2018-03-01T08:58:06.889Z,25.13
2018-03-01T09:00:34.545Z,22.87
2018-03-01T09:03:02.276Z,22.80
2018-03-01T09:05:30.117Z,18.80
2018-03-01T09:07:57.787Z,20.37
2018-03-01T09:10:25.652Z,23.20
2018-03-01T09:12:53.394Z,24.43
2018-03-01T09:15:20.968Z,15.53
2018-03-01T09:17:48.615Z,22.57
2018-03-01T09:20:16.254Z,23.83
2018-03-01T09:22:44.043Z,13.60
2018-03-01T09:25:11.657Z,20.87
2018-03-01T09:27:39.288Z,23.40
2018-03-01T09:30:07.029Z,25.47
2018-03-01T09:32:34.610Z,17.23
2018-03-01T09:35:02.196Z,22.40
2018-03-01T09:37:29.993Z,18.47
2018-03-01T09:39:57.567Z,21.83
2018-03-01T09:42:25.147Z,21.03
2018-03-01T09:44:52.916Z,23.53
2018-03-01T09:47:20.501Z,18.17
2018-03-01T09:49:48.171Z,21.23
2018-03-01T09:52:15.761Z,18.90
2018-03-01T09:54:43.353Z,10.63
2018-03-01T09:57:11.081Z,18.93
2018-03-01T09:59:38.664Z,19.93
2018-03-01T10:02:06.324Z,12.53
2018-03-01T10:04:34.118Z,21.40
2018-03-01T10:07:02.119Z,11.83
2018-03-01T10:09:29.982Z,34.53
2018-03-01T10:11:57.643Z,21.63
2018-03-01T10:14:25.529Z,18.80
2018-03-01T10:16:53.306Z,25.97
2018-03-01T10:19:20.967Z,12.87
2018-03-01T10:21:48.658Z,13.40
2018-03-01T10:24:16.323Z,11.93
2018-03-01T10:26:44.004Z,24.10
2018-03-01T10:29:11.747Z,24.90
2018-03-01T10:31:39.357Z,19.10
2018-03-01T10:34:07.032Z,20.90
2018-03-01T10:36:34.710Z,19.50
2018-03-01T10:39:02.370Z,18.33
2018-03-01T10:41:30.165Z,19.90
2018-03-01T10:43:57.892Z,19.17
2018-03-01T10:46:25.520Z,18.87
2018-03-01T10:48:53.106Z,20.33
2018-03-01T10:51:20.818Z,15.63
2018-03-01T10:53:48.528Z,23.30
2018-03-01T10:56:16.317Z,18.73
2018-03-01T10:58:44.101Z,14.33
2018-03-01T11:01:17.192Z,17.40
2018-03-01T11:03:44.858Z,21.73
2018-03-01T11:06:12.549Z,15.63
2018-03-01T11:08:40.329Z,24.17
2018-03-01T11:11:08.069Z,25.00
2018-03-01T11:13:35.837Z,25.27
2018-03-01T11:16:03.413Z,32.80
2018-03-01T11:18:31.232Z,19.90
2018-03-01T11:20:59.006Z,23.97
2018-03-01T11:23:26.671Z,17.53
2018-03-01T11:25:54.293Z,32.97
2018-03-01T11:28:22.028Z,22.20
2018-03-01T11:30:49.737Z,26.17
2018-03-01T11:33:17.325Z,25.87
2018-03-01T11:35:45.165Z,21.27
2018-03-01T11:38:12.923Z,24.13
2018-03-01T11:40:40.610Z,26.10
2018-03-01T11:43:08.357Z,21.27
2018-03-01T11:45:36.070Z,20.13
2018-03-01T11:48:03.816Z,24.40
2018-03-01T11:50:31.548Z,14.97
2018-03-01T11:52:59.472Z,22.30
2018-03-01T11:55:27.172Z,25.33
2018-03-01T11:57:54.956Z,13.83
2018-03-01T12:00:22.736Z,22.00
2018-03-01T12:02:50.514Z,19.30
2018-03-01T12:05:18.293Z,21.87
2018-03-01T12:07:46.075Z,31.50
2018-03-01T12:10:13.954Z,16.73
2018-03-01T12:12:41.618Z,18.37
2018-03-01T12:15:09.241Z,14.10
2018-03-01T12:17:37.074Z,22.43
2018-03-01T12:20:04.749Z,13.47
2018-03-01T12:22:32.441Z,27.60
2018-03-01T12:25:00.304Z,17.03
2018-03-01T12:27:27.973Z,20.20
2018-03-01T12:29:55.756Z,20.33
2018-03-01T12:32:23.537Z,20.03
2018-03-01T12:34:51.153Z,21.90
2018-03-01T12:37:18.884Z,16.90
2018-03-01T12:39:46.629Z,16.93
2018-03-01T12:42:14.332Z,18.70
2018-03-01T12:44:41.938Z,25.57
2018-03-01T12:47:09.797Z,27.60
2018-03-01T12:49:37.679Z,22.53
2018-03-01T12:52:05.406Z,19.17
2018-03-01T12:54:33.130Z,30.57
2018-03-01T12:57:00.743Z,21.90
2018-03-01T12:59:28.486Z,18.37
2018-03-01T13:01:56.248Z,28.60
2018-03-01T13:04:39.794Z,29.53
2018-03-01T13:07:07.583Z,16.40
2018-03-01T13:09:35.325Z,22.83
2018-03-01T13:12:03.131Z,20.30
2018-03-01T13:14:30.903Z,24.47
2018-03-01T13:16:58.524Z,22.47
2018-03-01T13:19:26.172Z,25.20
2018-03-01T13:21:53.838Z,13.40
2018-03-01T13:24:21.512Z,26.67
2018-03-01T13:26:49.289Z,16.73
2018-03-01T13:29:17.074Z,20.80
2018-03-01T13:34:49.187Z,29.47
2018-03-01T13:37:16.958Z,9.73
2018-03-01T13:39:44.735Z,16.17
2018-03-01T13:42:27.272Z,18.33
2018-03-01T13:44:54.885Z,21.93
2018-03-01T13:50:21.630Z,15.50
2018-03-01T13:52:49.510Z,22.33
2018-03-01T13:55:17.179Z,16.80
2018-03-01T13:57:44.844Z,13.93
2018-03-01T14:00:12.634Z,13.97
2018-03-01T14:02:40.513Z,11.20
2018-03-01T14:05:08.297Z,15.63
2018-03-01T14:07:40.562Z,30.80
2018-03-01T14:10:08.253Z,16.97
2018-03-01T14:12:40.693Z,19.10
2018-03-01T14:15:08.521Z,13.00
2018-03-01T14:17:51.038Z,18.87
2018-03-01T14:23:24.025Z,18.23
2018-03-01T14:25:53.189Z,16.07
2018-03-01T14:31:23.154Z,14.33
2018-03-01T14:33:51.032Z,13.13
2018-03-01T14:36:18.900Z,17.03
2018-03-01T14:38:46.677Z,14.70
2018-03-01T14:41:14.417Z,14.33
2018-03-01T14:43:42.140Z,16.23
2018-03-01T14:46:09.815Z,18.00
2018-03-01T14:48:37.484Z,30.40
2018-03-01T14:51:05.278Z,16.37
2018-03-01T14:53:33.049Z,20.17
2018-03-01T14:56:00.823Z,16.43
2018-03-01T14:58:28.603Z,16.80
2018-03-01T15:00:56.380Z,15.63
2018-03-01T15:03:24.163Z,9.17
2018-03-01T15:05:52.037Z,13.70
2018-03-01T15:08:19.646Z,8.83
2018-03-01T15:10:47.497Z,16.47
2018-03-01T15:13:15.092Z,16.23
2018-03-01T15:15:42.738Z,20.00
2018-03-01T15:18:10.508Z,19.30
2018-03-01T15:20:38.189Z,19.13
2018-03-01T15:23:06.078Z,17.07
2018-03-01T15:25:33.931Z,13.87
2018-03-01T15:28:01.642Z,19.27
2018-03-01T15:30:29.228Z,17.00
2018-03-01T15:32:57.187Z,18.60
2018-03-01T15:35:24.963Z,15.13
2018-03-01T15:37:52.545Z,28.83
2018-03-01T15:40:20.217Z,19.87
2018-03-01T15:42:47.812Z,13.40
2018-03-01T15:45:15.451Z,20.23
2018-03-01T15:47:43.127Z,25.17
2018-03-01T15:50:10.910Z,17.90
2018-03-01T15:52:38.690Z,17.13
2018-03-01T15:55:06.362Z,20.80
2018-03-01T15:57:34.030Z,12.93
2018-03-01T16:00:01.816Z,16.93
2018-03-01T16:02:29.400Z,23.30
2018-03-01T16:04:57.065Z,20.67
2018-03-01T16:07:24.714Z,13.63
2018-03-01T16:09:52.300Z,15.93
2018-03-01T16:12:19.984Z,17.53
2018-03-01T16:14:47.650Z,16.87
2018-03-01T16:17:15.336Z,19.10
2018-03-01T16:19:43.012Z,20.67
2018-03-01T16:22:10.656Z,21.73
2018-03-01T16:24:38.474Z,18.30
2018-03-01T16:27:06.214Z,14.67
2018-03-01T16:29:33.916Z,11.13
2018-03-01T16:32:01.595Z,18.17
2018-03-01T16:34:29.194Z,22.20
2018-03-01T16:36:56.835Z,31.53
2018-03-01T16:39:24.630Z,14.00
2018-03-01T16:41:52.502Z,23.20
2018-03-01T16:44:20.281Z,19.60
2018-03-01T16:46:48.058Z,19.40
2018-03-01T16:49:15.718Z,18.20
2018-03-01T16:51:43.615Z,12.33
2018-03-01T16:54:11.388Z,15.87
2018-03-01T16:56:39.066Z,24.63
2018-03-01T16:59:06.738Z,14.10
2018-03-01T17:01:34.380Z,17.10
2018-03-01T17:04:02.091Z,15.17
2018-03-01T17:06:29.768Z,14.57
2018-03-01T17:08:57.545Z,11.83
2018-03-01T17:11:25.323Z,20.93
2018-03-01T17:13:52.980Z,25.90
2018-03-01T17:16:20.593Z,19.83
2018-03-01T17:18:48.245Z,14.67
2018-03-01T17:21:16.024Z,22.07
2018-03-01T17:23:43.652Z,15.20
2018-03-01T17:26:11.367Z,29.23
2018-03-01T17:28:39.161Z,13.47
2018-03-01T17:31:06.887Z,18.13
2018-03-01T17:33:34.602Z,21.17
2018-03-01T17:36:02.279Z,7.70
2018-03-01T17:38:29.954Z,10.73
2018-03-01T17:40:57.697Z,17.07
2018-03-01T17:43:25.513Z,23.60
2018-03-01T17:45:53.390Z,19.03
2018-03-01T17:48:21.171Z,20.13
2018-03-01T17:50:48.767Z,17.50
2018-03-01T17:53:16.411Z,31.50
2018-03-01T17:55:44.146Z,25.03
2018-03-01T17:58:11.877Z,16.00
2018-03-01T18:00:39.632Z,18.60
2018-03-01T18:03:07.205Z,16.87
2018-03-01T18:05:34.896Z,16.67
2018-03-01T18:08:02.777Z,24.07
2018-03-01T18:10:30.515Z,16.77
2018-03-01T18:12:58.332Z,16.57
2018-03-01T18:15:26.074Z,19.43
2018-03-01T18:17:53.890Z,21.23
2018-03-01T18:20:21.606Z,16.33
2018-03-01T18:22:49.245Z,13.93
2018-03-01T18:25:16.904Z,15.60
2018-03-01T18:27:44.572Z,16.20
2018-03-01T18:30:12.226Z,21.53
2018-03-01T18:32:39.938Z,17.60
2018-03-01T18:35:07.715Z,22.60
2018-03-01T18:37:35.492Z,15.13
2018-03-01T18:40:03.170Z,16.47
2018-03-01T18:42:30.944Z,10.40
2018-03-01T18:44:58.722Z,16.00
2018-03-01T18:47:26.433Z,15.43
2018-03-01T18:49:54.073Z,22.60
2018-03-01T18:52:21.652Z,11.13
2018-03-01T18:54:49.274Z,18.20
2018-03-01T18:57:17.000Z,16.37
2018-03-01T18:59:44.592Z,14.27
2018-03-01T19:02:12.457Z,17.27
2018-03-01T19:04:40.123Z,16.50
2018-03-01T19:07:07.791Z,28.30
2018-03-01T19:09:35.577Z,10.40
2018-03-01T19:12:03.353Z,13.57
2018-03-01T19:14:31.013Z,20.73
2018-03-01T19:16:58.602Z,11.87
2018-03-01T19:19:26.274Z,12.70
2018-03-01T19:21:54.076Z,24.17
2018-03-01T19:24:21.719Z,23.27
2018-03-01T19:26:49.410Z,11.83
2018-03-01T19:29:17.075Z,22.07
2018-03-01T19:31:44.831Z,12.50
2018-03-01T19:34:12.629Z,15.30
2018-03-01T19:36:40.228Z,14.67
2018-03-01T19:39:07.884Z,17.13
2018-03-01T19:41:35.666Z,10.47
2018-03-01T19:44:03.336Z,17.20
2018-03-01T19:46:31.116Z,13.87
2018-03-01T19:48:58.692Z,10.97
2018-03-01T19:51:26.364Z,21.70
2018-03-01T19:53:53.941Z,21.13
2018-03-01T19:56:21.724Z,19.07
2018-03-01T19:58:49.395Z,21.57
2018-03-01T20:01:17.079Z,8.20
2018-03-01T20:03:44.853Z,11.67
2018-03-01T20:06:12.507Z,15.60
2018-03-01T20:08:40.296Z,15.87
2018-03-01T20:11:08.078Z,29.80
2018-03-01T20:13:35.761Z,37.27
2018-03-01T20:16:03.428Z,14.63
2018-03-01T20:18:31.010Z,19.00
2018-03-01T20:20:58.675Z,11.50
2018-03-01T20:23:26.324Z,19.10
2018-03-01T20:25:54.015Z,22.57
2018-03-01T20:28:21.690Z,15.13
2018-03-01T20:30:49.377Z,16.77
2018-03-01T20:33:17.141Z,18.13
2018-03-01T20:35:44.949Z,14.57
2018-03-01T20:38:12.818Z,26.00
2018-03-01T20:40:40.485Z,11.83
2018-03-01T20:43:08.158Z,13.57
2018-03-01T20:45:35.733Z,15.23
2018-03-01T20:48:03.393Z,15.30
2018-03-01T20:50:31.105Z,19.50
2018-03-01T20:52:58.720Z,19.70
2018-03-01T20:55:26.541Z,25.60
2018-03-01T20:57:54.140Z,16.83
2018-03-01T21:00:21.891Z,19.50
2018-03-01T21:02:49.563Z,24.93
2018-03-01T21:05:17.294Z,22.43
2018-03-01T21:07:45.129Z,15.03
2018-03-01T21:10:12.706Z,16.90
2018-03-01T21:12:40.476Z,20.73
2018-03-01T21:15:08.092Z,15.10
2018-03-01T21:17:35.674Z,18.20
2018-03-01T21:20:03.570Z,19.37
2018-03-01T21:22:31.276Z,15.37
2018-03-01T21:24:58.865Z,11.60
2018-03-01T21:27:26.616Z,16.10
2018-03-01T21:29:54.191Z,24.27
2018-03-01T21:32:21.803Z,26.83
2018-03-01T21:34:49.437Z,21.50
2018-03-01T21:37:17.183Z,14.33
2018-03-01T21:39:44.797Z,15.87
2018-03-01T21:42:12.451Z,16.07
2018-03-01T21:44:40.151Z,15.63
2018-03-01T21:47:07.777Z,22.43
2018-03-01T21:49:35.382Z,28.33
2018-03-01T21:52:02.999Z,28.50
2018-03-01T21:54:30.640Z,24.80
2018-03-01T21:56:58.321Z,12.43
2018-03-01T21:59:26.097Z,10.60
2018-03-01T22:01:53.872Z,19.67
2018-03-01T22:04:21.445Z,27.67
2018-03-01T22:06:49.023Z,15.10
2018-03-01T22:09:16.699Z,23.20
2018-03-01T22:11:44.371Z,27.87
2018-03-01T22:14:11.953Z,19.67
2018-03-01T22:16:39.532Z,22.47
2018-03-01T22:19:07.300Z,17.57
2018-03-01T22:21:34.968Z,26.00
2018-03-01T22:24:02.753Z,18.13
2018-03-01T22:26:30.426Z,22.80
2018-03-01T22:28:58.101Z,22.77
2018-03-01T22:31:25.837Z,16.93
2018-03-01T22:33:53.479Z,18.33
2018-03-01T22:36:21.113Z,23.40
2018-03-01T22:38:48.806Z,11.30
2018-03-01T22:41:16.472Z,15.20
2018-03-01T22:43:44.141Z,23.80
2018-03-01T22:46:11.831Z,19.90
2018-03-01T22:48:39.422Z,28.47
2018-03-01T22:51:07.075Z,18.00
2018-03-01T22:53:34.754Z,20.10
2018-03-01T22:56:02.472Z,12.80
2018-03-01T22:58:30.095Z,14.80
2018-03-01T23:00:57.987Z,22.40
2018-03-01T23:03:25.568Z,25.63
2018-03-01T23:05:53.144Z,31.63
2018-03-01T23:08:20.798Z,12.60
2018-03-01T23:10:48.484Z,16.00
2018-03-01T23:13:16.061Z,23.03
2018-03-01T23:15:43.722Z,24.40
2018-03-01T23:18:11.567Z,24.30
2018-03-01T23:20:39.187Z,27.50
2018-03-01T23:23:06.928Z,24.90
2018-03-01T23:25:34.693Z,12.63
2018-03-01T23:28:02.519Z,27.43
2018-03-01T23:30:30.454Z,24.00
2018-03-01T23:32:58.073Z,24.13
2018-03-01T23:35:25.810Z,27.10
2018-03-01T23:37:53.420Z,31.20
2018-03-01T23:40:21.090Z,11.47
2018-03-01T23:42:48.773Z,30.00
2018-03-01T23:45:16.558Z,15.47
2018-03-01T23:47:44.142Z,26.07
2018-03-01T23:50:11.998Z,23.67
2018-03-01T23:52:39.785Z,31.63
2018-03-01T23:55:07.446Z,29.67
2018-03-01T23:57:35.124Z,19.23
